createdAt,value
2023-01-29T00:00:12.892Z,69.13
2023-01-29T00:02:40.448Z,62.20
2023-01-29T00:05:26.101Z,67.68
2023-01-29T00:07:56.508Z,65.45
2023-01-29T00:10:25.954Z,60.13
2023-01-29T00:12:53.613Z,66.00
2023-01-29T00:15:21.361Z,63.83
2023-01-29T00:17:48.944Z,64.45
2023-01-29T00:20:17.901Z,72.75
2023-01-29T00:22:45.615Z,66.28
2023-01-29T00:25:13.148Z,62.97
2023-01-29T00:27:40.734Z,64.65
2023-01-29T00:30:14.888Z,71.45
2023-01-29T00:32:43.102Z,64.25
2023-01-29T00:35:11.572Z,78.65
2023-01-29T00:37:39.130Z,78.10
2023-01-29T00:40:08.034Z,66.90
2023-01-29T00:42:54.439Z,66.43
2023-01-29T00:45:22.113Z,62.25
2023-01-29T00:47:50.180Z,63.40
2023-01-29T00:50:19.181Z,63.53
2023-01-29T00:52:48.663Z,58.63
2023-01-29T00:55:16.633Z,58.13
2023-01-29T00:57:45.026Z,63.08
2023-01-29T01:00:15.193Z,66.25
2023-01-29T01:03:01.857Z,65.53
2023-01-29T01:05:30.130Z,59.60
2023-01-29T01:07:59.388Z,69.32
2023-01-29T01:10:30.548Z,65.45
2023-01-29T01:13:01.546Z,69.75
2023-01-29T01:15:32.671Z,73.22
2023-01-29T01:18:01.685Z,72.82
2023-01-29T01:20:32.611Z,71.43
2023-01-29T01:23:00.107Z,71.05
2023-01-29T01:25:27.667Z,70.15
2023-01-29T01:27:57.604Z,70.05
2023-01-29T01:30:26.236Z,78.50
2023-01-29T01:32:54.047Z,65.05
2023-01-29T01:35:21.601Z,65.90
2023-01-29T01:37:49.873Z,66.18
2023-01-29T01:40:23.628Z,63.65
2023-01-29T01:42:54.781Z,69.07
2023-01-29T01:45:30.716Z,68.18
2023-01-29T01:48:15.498Z,68.43
2023-01-29T01:50:57.498Z,58.72
2023-01-29T01:53:38.505Z,63.25
2023-01-29T01:56:14.234Z,62.90
2023-01-29T01:58:47.842Z,58.58
2023-01-29T02:01:15.623Z,62.63
2023-01-29T02:04:08.965Z,66.53
2023-01-29T02:06:58.421Z,64.82
2023-01-29T02:09:38.880Z,64.78
2023-01-29T02:12:10.987Z,63.95
2023-01-29T02:14:41.414Z,70.43
2023-01-29T02:17:15.731Z,70.75
2023-01-29T02:19:56.979Z,64.40
2023-01-29T02:23:05.664Z,66.43
2023-01-29T02:26:07.146Z,64.95
2023-01-29T02:29:20.737Z,58.30
2023-01-29T02:31:54.455Z,67.45
2023-01-29T02:34:53.146Z,65.03
2023-01-29T02:37:31.869Z,66.72
2023-01-29T02:40:11.405Z,63.70
2023-01-29T02:42:51.425Z,66.38
2023-01-29T02:45:52.902Z,64.72
2023-01-29T02:48:23.163Z,65.57
2023-01-29T02:51:03.541Z,61.13
2023-01-29T02:53:46.413Z,66.20
2023-01-29T02:56:19.300Z,62.80
2023-01-29T02:59:23.677Z,63.50
2023-01-29T03:02:08.276Z,67.95
2023-01-29T03:04:43.225Z,75.32
2023-01-29T03:07:38.371Z,67.78
2023-01-29T03:10:13.639Z,70.35
2023-01-29T03:12:43.912Z,67.25
2023-01-29T03:15:18.136Z,66.15
2023-01-29T03:18:07.529Z,65.47
2023-01-29T03:20:48.374Z,62.88
2023-01-29T03:23:38.199Z,66.55
2023-01-29T03:26:29.641Z,61.92
2023-01-29T03:29:17.405Z,83.25
2023-01-29T03:32:04.457Z,68.57
2023-01-29T03:34:43.604Z,57.72
2023-01-29T03:37:19.228Z,74.00
2023-01-29T03:39:47.601Z,66.63
2023-01-29T03:42:38.398Z,63.47
2023-01-29T03:45:12.617Z,60.10
2023-01-29T03:48:08.639Z,64.93
2023-01-29T03:50:47.128Z,74.10
2023-01-29T03:53:47.269Z,63.05
2023-01-29T03:56:33.045Z,118.10
2023-01-29T03:59:02.710Z,64.60
2023-01-29T04:01:57.281Z,63.40
2023-01-29T04:04:30.015Z,66.63
2023-01-29T04:07:04.788Z,66.07
2023-01-29T04:09:43.091Z,67.05
2023-01-29T04:12:14.348Z,63.03
2023-01-29T04:14:46.420Z,69.32
2023-01-29T04:17:33.042Z,69.88
2023-01-29T04:20:11.459Z,69.65
2023-01-29T04:22:49.368Z,81.57
2023-01-29T04:25:26.778Z,82.00
2023-01-29T04:28:06.613Z,70.13
2023-01-29T04:30:54.784Z,66.32
2023-01-29T04:33:29.373Z,63.17
2023-01-29T04:36:16.385Z,58.47
2023-01-29T04:38:51.220Z,73.25
2023-01-29T04:43:56.497Z,84.53
2023-01-29T04:46:37.295Z,101.32
2023-01-29T04:49:20.654Z,139.90
2023-01-29T04:52:07.832Z,64.55
2023-01-29T04:55:07.241Z,54.90
2023-01-29T04:57:46.339Z,49.35
2023-01-29T05:00:19.382Z,49.78
2023-01-29T05:02:48.941Z,44.67
2023-01-29T05:05:20.163Z,45.45
2023-01-29T05:07:48.707Z,45.97
2023-01-29T05:10:20.344Z,41.17
2023-01-29T05:12:53.865Z,42.03
2023-01-29T05:15:28.054Z,43.15
2023-01-29T05:18:01.811Z,43.38
2023-01-29T05:20:34.673Z,44.47
2023-01-29T05:23:02.462Z,43.17
2023-01-29T05:25:32.737Z,46.95
2023-01-29T05:28:07.270Z,87.13
2023-01-29T05:30:37.450Z,65.20
2023-01-29T05:33:17.247Z,54.97
2023-01-29T05:35:45.491Z,62.25
2023-01-29T05:38:14.113Z,52.35
2023-01-29T05:40:43.014Z,67.72
2023-01-29T05:43:24.778Z,42.53
2023-01-29T05:45:57.469Z,46.30
2023-01-29T05:48:27.662Z,42.42
2023-01-29T05:51:01.232Z,39.40
2023-01-29T05:53:29.745Z,39.33
2023-01-29T05:55:57.363Z,41.17
2023-01-29T05:58:25.409Z,43.35
2023-01-29T06:00:53.272Z,39.05
2023-01-29T06:03:20.807Z,41.70
2023-01-29T06:05:48.430Z,39.30
2023-01-29T06:08:16.012Z,44.17
2023-01-29T06:10:43.647Z,41.47
2023-01-29T06:13:11.222Z,51.25
2023-01-29T06:15:40.808Z,53.70
2023-01-29T06:18:08.481Z,55.45
2023-01-29T06:20:37.365Z,48.63
2023-01-29T06:23:05.088Z,47.88
2023-01-29T06:25:32.648Z,46.65
2023-01-29T06:28:03.015Z,48.92
2023-01-29T06:30:31.955Z,53.50
2023-01-29T06:33:01.631Z,45.95
2023-01-29T06:35:29.245Z,58.65
2023-01-29T06:37:56.891Z,51.25
2023-01-29T06:40:25.002Z,54.90
2023-01-29T06:42:52.508Z,43.47
2023-01-29T06:45:20.015Z,49.45
2023-01-29T06:47:47.538Z,37.10
2023-01-29T06:50:15.551Z,42.42
2023-01-29T06:52:45.860Z,55.33
2023-01-29T06:55:13.357Z,41.38
2023-01-29T06:57:40.900Z,44.30
2023-01-29T07:00:09.983Z,43.95
2023-01-29T07:02:37.660Z,38.30
2023-01-29T07:05:05.501Z,74.47
2023-01-29T07:07:36.922Z,50.78
2023-01-29T07:10:05.197Z,50.35
2023-01-29T07:12:33.163Z,52.65
2023-01-29T07:15:00.684Z,53.92
2023-01-29T07:17:28.312Z,48.47
2023-01-29T07:19:55.993Z,38.42
2023-01-29T07:22:23.650Z,31.88
2023-01-29T07:24:51.214Z,57.72
2023-01-29T07:27:18.978Z,41.10
2023-01-29T07:29:46.714Z,31.02
2023-01-29T07:32:14.295Z,30.63
2023-01-29T07:34:41.854Z,29.77
2023-01-29T07:37:09.384Z,39.95
2023-01-29T07:39:37.189Z,46.13
2023-01-29T07:42:05.060Z,69.05
2023-01-29T07:44:32.525Z,103.03
2023-01-29T07:47:00.043Z,42.30
2023-01-29T07:49:27.566Z,34.22
2023-01-29T07:51:55.084Z,28.63
2023-01-29T07:54:22.657Z,39.67
2023-01-29T07:56:50.188Z,58.20
2023-01-29T07:59:18.021Z,41.15
2023-01-29T08:01:45.571Z,32.30
2023-01-29T08:04:13.135Z,44.03
2023-01-29T08:06:40.657Z,33.92
2023-01-29T08:09:08.871Z,49.72
2023-01-29T08:11:36.538Z,31.70
2023-01-29T08:14:04.115Z,29.85
2023-01-29T08:16:31.641Z,38.55
2023-01-29T08:18:59.283Z,31.95
2023-01-29T08:21:26.827Z,28.30
2023-01-29T08:23:54.426Z,27.25
2023-01-29T08:26:22.033Z,37.67
2023-01-29T08:28:50.055Z,28.98
2023-01-29T08:31:23.252Z,31.98
2023-01-29T08:33:51.273Z,30.10
2023-01-29T08:36:18.836Z,31.27
2023-01-29T08:38:46.388Z,30.15
2023-01-29T08:41:14.089Z,63.53
2023-01-29T08:43:41.786Z,54.45
2023-01-29T08:46:09.304Z,31.17
2023-01-29T08:48:36.960Z,25.98
2023-01-29T08:51:05.271Z,29.25
2023-01-29T08:53:33.394Z,32.30
2023-01-29T08:56:01.059Z,27.92
2023-01-29T08:58:28.883Z,32.90
2023-01-29T09:00:56.455Z,38.25
2023-01-29T09:03:23.966Z,34.50
2023-01-29T09:05:51.691Z,29.95
2023-01-29T09:08:19.308Z,28.85
2023-01-29T09:10:46.994Z,39.42
2023-01-29T09:13:14.658Z,31.50
2023-01-29T09:15:42.242Z,66.35
2023-01-29T09:18:09.875Z,31.17
2023-01-29T09:20:39.973Z,42.88
2023-01-29T09:23:09.771Z,31.20
2023-01-29T09:25:37.726Z,33.53
2023-01-29T09:28:06.288Z,29.30
2023-01-29T09:30:37.813Z,29.20
2023-01-29T09:33:06.142Z,26.98
2023-01-29T09:35:34.362Z,33.60
2023-01-29T09:38:01.991Z,28.40
2023-01-29T09:40:54.589Z,30.20
2023-01-29T09:43:31.408Z,41.22
2023-01-29T09:46:05.428Z,28.25
2023-01-29T09:48:36.443Z,23.75
2023-01-29T09:51:14.231Z,30.48
2023-01-29T09:54:05.183Z,33.47
2023-01-29T09:56:32.817Z,26.25
2023-01-29T09:59:01.693Z,21.58
2023-01-29T10:01:38.300Z,27.83
2023-01-29T10:04:43.338Z,27.45
2023-01-29T10:07:25.675Z,28.42
2023-01-29T10:10:14.851Z,31.00
2023-01-29T10:12:48.784Z,34.67
2023-01-29T10:15:31.311Z,34.47
2023-01-29T10:18:20.130Z,33.92
2023-01-29T10:20:53.530Z,25.00
2023-01-29T10:23:34.386Z,54.22
2023-01-29T10:26:02.687Z,30.40
2023-01-29T10:28:48.405Z,27.27
2023-01-29T10:31:25.052Z,24.83
2023-01-29T10:34:03.316Z,30.77
2023-01-29T10:36:42.719Z,24.55
2023-01-29T10:39:18.883Z,24.25
2023-01-29T10:42:05.904Z,27.52
2023-01-29T10:44:56.705Z,40.45
2023-01-29T10:47:54.150Z,20.95
2023-01-29T10:50:45.198Z,25.02
2023-01-29T10:53:23.000Z,30.33
2023-01-29T10:56:10.739Z,27.75
2023-01-29T10:58:59.518Z,37.27
2023-01-29T11:01:27.498Z,29.30
2023-01-29T11:04:02.280Z,31.02
2023-01-29T11:06:31.509Z,38.75
2023-01-29T11:09:09.253Z,23.88
2023-01-29T11:11:43.240Z,25.90
2023-01-29T11:14:16.629Z,42.13
2023-01-29T11:16:47.316Z,71.80
2023-01-29T11:19:16.225Z,44.65
2023-01-29T11:22:16.998Z,19.80
2023-01-29T11:24:44.719Z,42.80
2023-01-29T11:27:25.974Z,28.27
2023-01-29T11:29:54.415Z,21.08
2023-01-29T11:32:22.091Z,22.95
2023-01-29T11:35:03.822Z,24.08
2023-01-29T11:37:39.952Z,52.17
2023-01-29T11:40:40.620Z,34.67
2023-01-29T11:43:26.557Z,30.50
2023-01-29T11:45:55.968Z,20.90
2023-01-29T11:48:32.034Z,41.63
2023-01-29T11:51:01.586Z,22.20
2023-01-29T11:53:43.415Z,26.35
2023-01-29T11:56:27.119Z,25.27
2023-01-29T11:58:57.676Z,20.90
2023-01-29T12:01:33.071Z,30.38
2023-01-29T12:04:01.454Z,43.28
2023-01-29T12:06:41.500Z,25.52
2023-01-29T12:09:18.308Z,21.33
2023-01-29T12:11:45.871Z,19.15
2023-01-29T12:14:33.579Z,57.28
2023-01-29T12:17:11.708Z,23.08
2023-01-29T12:19:46.500Z,16.63
2023-01-29T12:22:41.810Z,54.42
2023-01-29T12:25:36.275Z,20.70
2023-01-29T12:28:22.689Z,22.48
2023-01-29T12:33:34.141Z,44.80
2023-01-29T12:36:26.946Z,28.40
2023-01-29T12:38:55.921Z,41.50
2023-01-29T12:41:38.468Z,17.38
2023-01-29T12:44:17.824Z,15.50
2023-01-29T12:46:56.777Z,45.08
2023-01-29T12:49:32.567Z,21.98
2023-01-29T12:52:13.434Z,21.52
2023-01-29T12:54:52.767Z,16.90
2023-01-29T12:57:41.119Z,15.18
2023-01-29T13:00:19.435Z,23.38
2023-01-29T13:03:03.720Z,20.52
2023-01-29T13:05:39.357Z,21.75
2023-01-29T13:08:32.140Z,19.48
2023-01-29T13:11:04.638Z,17.67
2023-01-29T13:13:53.987Z,15.15
2023-01-29T13:16:28.079Z,18.77
2023-01-29T13:19:00.597Z,19.85
2023-01-29T13:21:39.066Z,17.13
2023-01-29T13:24:16.643Z,58.80
2023-01-29T13:26:48.809Z,19.23
2023-01-29T13:29:26.747Z,29.33
2023-01-29T13:31:56.717Z,16.50
2023-01-29T13:34:31.635Z,15.82
2023-01-29T13:37:02.827Z,15.10
2023-01-29T13:39:39.669Z,14.48
2023-01-29T13:42:21.753Z,18.67
2023-01-29T13:45:03.262Z,15.38
2023-01-29T13:47:37.108Z,18.35
2023-01-29T13:50:19.609Z,16.20
2023-01-29T13:53:02.274Z,26.17
2023-01-29T13:55:40.970Z,24.13
2023-01-29T13:58:17.908Z,17.92
2023-01-29T14:00:45.399Z,30.48
2023-01-29T14:03:12.944Z,24.63
2023-01-29T14:05:44.489Z,18.42
2023-01-29T14:08:17.508Z,18.65
2023-01-29T14:10:45.175Z,22.20
2023-01-29T14:13:15.604Z,18.17
2023-01-29T14:15:43.835Z,18.98
2023-01-29T14:18:11.584Z,20.70
2023-01-29T14:21:01.376Z,17.63
2023-01-29T14:23:55.848Z,18.80
2023-01-29T14:26:38.819Z,19.17
2023-01-29T14:29:14.433Z,44.72
2023-01-29T14:31:46.825Z,41.35
2023-01-29T14:34:20.388Z,110.97
2023-01-29T14:36:55.293Z,21.65
2023-01-29T14:39:33.122Z,22.02
2023-01-29T14:42:04.509Z,36.67
2023-01-29T14:45:26.232Z,22.83
2023-01-29T14:47:57.409Z,19.40
2023-01-29T14:50:34.825Z,22.33
2023-01-29T14:53:14.641Z,24.83
2023-01-29T14:55:59.556Z,29.83
2023-01-29T14:59:02.942Z,21.17
2023-01-29T15:01:38.979Z,32.58
2023-01-29T15:04:12.060Z,29.65
2023-01-29T15:06:50.423Z,29.63
2023-01-29T15:09:36.646Z,25.25
2023-01-29T15:12:17.273Z,25.25
2023-01-29T15:15:17.378Z,23.98
2023-01-29T15:18:03.445Z,26.23
2023-01-29T15:20:40.386Z,24.02
2023-01-29T15:23:27.635Z,30.23
2023-01-29T15:25:58.128Z,29.63
2023-01-29T15:28:28.464Z,29.33
2023-01-29T15:30:59.086Z,31.13
2023-01-29T15:33:28.355Z,30.85
2023-01-29T15:36:06.954Z,38.80
2023-01-29T15:38:35.662Z,55.85
2023-01-29T15:41:17.223Z,67.80
2023-01-29T15:43:47.709Z,74.68
2023-01-29T15:46:25.048Z,61.40
2023-01-29T15:48:56.002Z,48.95
2023-01-29T15:51:26.383Z,42.42
2023-01-29T15:53:59.802Z,65.20
2023-01-29T15:56:38.613Z,48.42
2023-01-29T15:59:10.057Z,55.60
2023-01-29T16:01:37.891Z,55.33
2023-01-29T16:04:06.173Z,32.05
2023-01-29T16:06:37.902Z,34.50
2023-01-29T16:09:07.288Z,33.40
2023-01-29T16:11:35.751Z,52.25
2023-01-29T16:14:06.503Z,27.17
2023-01-29T16:16:34.858Z,27.30
2023-01-29T16:19:21.377Z,32.05
2023-01-29T16:21:58.949Z,29.63
2023-01-29T16:24:28.188Z,29.45
2023-01-29T16:27:09.765Z,38.38
2023-01-29T16:29:37.337Z,28.83
2023-01-29T16:32:06.847Z,33.47
2023-01-29T16:34:42.303Z,32.10
2023-01-29T16:37:25.637Z,28.77
2023-01-29T16:39:54.253Z,42.22
2023-01-29T16:42:26.934Z,38.88
2023-01-29T16:45:01.634Z,30.25
2023-01-29T16:47:34.913Z,32.67
2023-01-29T16:50:24.101Z,31.50
2023-01-29T16:53:01.178Z,48.70
2023-01-29T16:55:37.393Z,43.72
2023-01-29T16:58:15.189Z,37.95
2023-01-29T17:00:46.825Z,30.20
2023-01-29T17:03:17.127Z,32.47
2023-01-29T17:05:45.535Z,36.28
2023-01-29T17:08:34.410Z,37.42
2023-01-29T17:11:03.055Z,35.70
2023-01-29T17:13:43.839Z,30.92
2023-01-29T17:16:22.668Z,33.28
2023-01-29T17:18:50.430Z,28.63
2023-01-29T17:21:19.126Z,38.63
2023-01-29T17:23:47.065Z,34.58
2023-01-29T17:26:15.353Z,34.38
2023-01-29T17:28:43.290Z,35.28
2023-01-29T17:31:12.487Z,35.88
2023-01-29T17:33:43.103Z,35.50
2023-01-29T17:36:15.198Z,32.95
2023-01-29T17:38:43.590Z,29.85
2023-01-29T17:41:24.840Z,34.20
2023-01-29T17:43:52.459Z,36.75
2023-01-29T17:46:21.431Z,50.28
2023-01-29T17:48:49.433Z,34.88
2023-01-29T17:51:18.248Z,31.60
2023-01-29T17:53:47.068Z,37.50
2023-01-29T17:56:23.599Z,40.83
2023-01-29T17:58:51.742Z,49.70
2023-01-29T18:01:20.981Z,34.55
2023-01-29T18:03:48.827Z,46.25
2023-01-29T18:06:29.210Z,38.25
2023-01-29T18:08:57.517Z,35.75
2023-01-29T18:11:25.339Z,37.50
2023-01-29T18:13:53.055Z,39.58
2023-01-29T18:16:23.999Z,35.58
2023-01-29T18:18:52.973Z,35.15
2023-01-29T18:21:20.783Z,37.38
2023-01-29T18:23:48.227Z,37.17
2023-01-29T18:26:17.417Z,47.35
2023-01-29T18:28:45.268Z,42.00
2023-01-29T18:31:14.423Z,41.28
2023-01-29T18:33:42.433Z,39.80
2023-01-29T18:36:10.177Z,47.60
2023-01-29T18:38:37.953Z,43.92
2023-01-29T18:41:07.249Z,39.78
2023-01-29T18:43:35.005Z,35.03
2023-01-29T18:46:04.350Z,34.25
2023-01-29T18:48:32.600Z,43.33
2023-01-29T18:51:01.835Z,34.85
2023-01-29T18:53:29.752Z,36.45
2023-01-29T18:56:00.034Z,40.17
2023-01-29T18:58:35.611Z,47.28
2023-01-29T19:01:10.058Z,36.63
2023-01-29T19:03:39.803Z,51.70
2023-01-29T19:06:09.569Z,149.48
2023-01-29T19:08:37.553Z,45.38
2023-01-29T19:11:08.237Z,67.45
2023-01-29T19:13:37.009Z,48.00
2023-01-29T19:16:09.962Z,45.47
2023-01-29T19:18:38.852Z,40.80
2023-01-29T19:21:10.102Z,36.50
2023-01-29T19:23:38.165Z,37.40
2023-01-29T19:26:07.424Z,37.63
2023-01-29T19:28:35.670Z,31.58
2023-01-29T19:31:05.966Z,34.33
2023-01-29T19:33:33.944Z,31.10
2023-01-29T19:36:02.079Z,30.40
2023-01-29T19:38:33.452Z,33.13
2023-01-29T19:41:01.359Z,30.80
2023-01-29T19:43:30.701Z,30.95
2023-01-29T19:46:00.480Z,30.60
2023-01-29T19:48:28.597Z,36.03
2023-01-29T19:50:59.048Z,34.60
2023-01-29T19:53:30.809Z,31.83
2023-01-29T19:56:00.642Z,33.53
2023-01-29T19:58:29.273Z,35.15
2023-01-29T20:00:59.637Z,35.42
2023-01-29T20:03:29.113Z,31.80
2023-01-29T20:06:03.645Z,31.70
2023-01-29T20:08:32.510Z,31.98
2023-01-29T20:11:00.817Z,43.25
2023-01-29T20:13:29.051Z,62.50
2023-01-29T20:15:56.861Z,83.70
2023-01-29T20:18:26.067Z,81.35
2023-01-29T20:20:53.963Z,67.93
2023-01-29T20:23:35.493Z,45.95
2023-01-29T20:26:05.796Z,47.65
2023-01-29T20:28:34.630Z,72.03
2023-01-29T20:31:04.527Z,39.72
2023-01-29T20:33:33.645Z,39.03
2023-01-29T20:36:04.644Z,69.38
2023-01-29T20:38:33.894Z,60.88
2023-01-29T20:41:05.644Z,48.53
2023-01-29T20:43:34.082Z,33.17
2023-01-29T20:46:02.515Z,47.35
2023-01-29T20:48:31.174Z,42.38
2023-01-29T20:51:09.248Z,34.78
2023-01-29T20:53:37.222Z,32.05
2023-01-29T20:56:07.226Z,45.65
2023-01-29T20:58:35.871Z,51.00
2023-01-29T21:01:11.410Z,60.90
2023-01-29T21:03:40.005Z,94.45
2023-01-29T21:06:09.237Z,85.20
2023-01-29T21:08:38.130Z,56.80
2023-01-29T21:11:08.163Z,47.05
2023-01-29T21:13:36.849Z,41.28
2023-01-29T21:16:05.077Z,58.42
2023-01-29T21:18:32.900Z,42.75
2023-01-29T21:21:00.527Z,42.50
2023-01-29T21:23:29.370Z,47.53
2023-01-29T21:26:05.159Z,54.05
2023-01-29T21:28:33.761Z,61.65
2023-01-29T21:31:10.225Z,58.25
2023-01-29T21:33:38.344Z,42.85
2023-01-29T21:36:14.293Z,54.50
2023-01-29T21:38:41.948Z,36.90
2023-01-29T21:41:10.098Z,120.18
2023-01-29T21:43:38.044Z,70.07
2023-01-29T21:46:11.971Z,57.58
2023-01-29T21:48:40.658Z,53.03
2023-01-29T21:51:08.600Z,57.15
2023-01-29T21:53:36.769Z,131.98
2023-01-29T21:56:05.769Z,62.00
2023-01-29T21:58:33.736Z,63.70
2023-01-29T22:01:18.240Z,58.85
2023-01-29T22:03:48.705Z,45.15
2023-01-29T22:06:16.341Z,41.78
2023-01-29T22:08:43.784Z,43.00
2023-01-29T22:11:11.455Z,44.25
2023-01-29T22:13:39.165Z,306.23
2023-01-29T22:16:07.882Z,625.00
2023-01-29T22:18:35.625Z,132.73
2023-01-29T22:21:03.911Z,59.20
2023-01-29T22:23:31.964Z,137.27
2023-01-29T22:26:04.205Z,114.70
2023-01-29T22:28:31.690Z,78.22
2023-01-29T22:31:02.929Z,64.25
2023-01-29T22:33:30.912Z,39.72
2023-01-29T22:35:58.445Z,52.55
2023-01-29T22:38:26.640Z,57.88
2023-01-29T22:40:56.073Z,75.07
2023-01-29T22:43:26.024Z,37.83
2023-01-29T22:45:53.539Z,38.60
2023-01-29T22:48:23.091Z,37.28
2023-01-29T22:51:09.355Z,92.95
2023-01-29T22:53:37.762Z,125.05
2023-01-29T22:56:06.858Z,36.83
2023-01-29T22:58:34.663Z,55.17
2023-01-29T23:01:02.901Z,98.25
2023-01-29T23:03:30.407Z,41.55
2023-01-29T23:05:57.972Z,45.35
2023-01-29T23:08:25.568Z,44.72
2023-01-29T23:10:53.150Z,40.05
2023-01-29T23:13:21.042Z,41.00
2023-01-29T23:15:58.358Z,40.67
2023-01-29T23:18:26.241Z,38.42
2023-01-29T23:20:57.768Z,40.00
2023-01-29T23:23:25.272Z,44.33
2023-01-29T23:26:16.057Z,38.28
2023-01-29T23:28:43.843Z,41.78
2023-01-29T23:31:11.981Z,47.13
2023-01-29T23:33:39.838Z,43.78
2023-01-29T23:36:07.919Z,39.42
2023-01-29T23:38:35.415Z,47.75
2023-01-29T23:41:03.034Z,40.75
2023-01-29T23:43:31.432Z,129.63
2023-01-29T23:45:58.966Z,101.50
2023-01-29T23:48:26.811Z,414.05
2023-01-29T23:50:54.393Z,521.55
2023-01-29T23:53:22.168Z,271.77
2023-01-29T23:56:03.623Z,49.97
2023-01-29T23:58:32.558Z,50.15
